Hovedside
METAR-TAF:

METAR-TAF

Lufthavner :

Karup, Danmark

Karup lufthavn

breddegrad: 56-18N, lengdegrad: 009-07E, høyde over havet: 52 m

Gjeldene værobservasjon

Denne rapporten ble laget for 9 minutter siden, klokken 08:22 UTC
Vind 7 kt fra Sørøst, skiftende mellom Øst og Sør-sørøst
Temperatur 0°C
Luftfuktighet 93%
Trykk 1008 hPa
Sikt: 2800 m
Overskyet i en høyde av 700 ft
lett snø

METAR: EKKA 220822Z 13007KT 100V160 2800 -SN OVC007 00/M01 Q1008 R09R/490295 TEMPO 4000 BKN010

Tid: 09:31 (08:31 UTC)

Varsel

Denne rapporten ble laget for 3 timer og 22 minutter siden, klokken 05:09 UTC
Varsel gyldig fra 22. klokken 06 UTC til 23. klokken 06 UTC
Vind 10 kt fra Sørøst
Sikt: 8000 m
Spredte skyer i en høyde av 800 ft
Brutte skyer i en høyde av 1500 ft
Midlertidig
fra 22. klokken 06 UTC til 23. klokken 06 UTC
Sikt: 2500 m
Brutte skyer i en høyde av 400 ft
dis, lett snø

TAF: EKKA 220509Z 2206/2306 14010KT 8000 SCT008 BKN015 TEMPO 2206/2306 2500 BR -SN BKN004

Værobservasjoner og værvarsel for over 4000 flyplasser (METAR- og TAF-rapporter).

Tilgjengelige stasjoner er representert av de røde og gule prikkene på kartet.

Hold musepekeren over prikken for å se navnet på stasjonen.

Klikk så for å se værobservasjoner og -varsler.

For å forandre kartet kan du klikke på den grønne knappen med svart kryss for å zoome inn, på den grønne knappen med strek for å zoome ut, eller på de grønne pilene for å se tilstøtende kart.


METAR-TAF: